Time;durP1;ratioP1;P1;durP2;ratioP2;P2;SDS_P1;SDS_P2;PMS_P1;PMS_P2;Temp;Humidity;BMP_temperature;BMP_pressure;BME280_temperature;BME280_humidity;BME280_pressure;Samples;Min_cycle;Max_cycle;Signal;HPM_P1;HPM_P2
2022/03/02 00:01:38;;;;;;;6.25;4.40;;;17.90;57.30;;;;;;10414072;28;20039;-54
2022/03/02 00:06:38;;;;;;;6.53;3.90;;;17.90;57.10;;;;;;10413912;28;20037;-53
2022/03/02 00:11:39;;;;;;;5.35;4.03;;;17.90;57.30;;;;;;10415771;28;20069;-54
2022/03/02 00:16:40;;;;;;;4.55;3.60;;;17.90;57.20;;;;;;10413978;28;20036;-55
2022/03/02 00:21:41;;;;;;;5.65;3.90;;;17.90;57.10;;;;;;10429147;28;20426;-54
2022/03/02 00:26:41;;;;;;;4.50;3.50;;;17.90;57.10;;;;;;10413323;28;20040;-55
2022/03/02 00:31:43;;;;;;;4.72;3.70;;;17.90;57.10;;;;;;10395687;28;20498;-54
2022/03/02 00:36:43;;;;;;;4.85;3.72;;;17.90;57.10;;;;;;10427918;28;20065;-51
2022/03/02 00:41:44;;;;;;;5.88;4.13;;;17.90;57.00;;;;;;10412003;28;20053;-54
2022/03/02 00:46:45;;;;;;;5.28;4.00;;;17.90;57.00;;;;;;10415696;28;20061;-52
2022/03/02 00:51:46;;;;;;;5.13;4.45;;;17.90;57.00;;;;;;10423511;28;20031;-52
2022/03/02 00:56:47;;;;;;;5.00;3.70;;;17.80;56.90;;;;;;10424559;28;20025;-53
2022/03/02 01:01:48;;;;;;;4.47;3.85;;;17.80;56.90;;;;;;10421003;28;20087;-51
2022/03/02 01:06:49;;;;;;;4.68;3.75;;;17.90;56.80;;;;;;10419575;28;20115;-51
2022/03/02 01:11:50;;;;;;;5.25;4.18;;;17.90;56.70;;;;;;10436296;28;20033;-52
2022/03/02 01:16:51;;;;;;;5.15;4.10;;;17.90;56.70;;;;;;10436274;28;20099;-52
2022/03/02 01:21:52;;;;;;;5.20;4.30;;;17.90;56.60;;;;;;10423106;28;20030;-53
2022/03/02 01:26:53;;;;;;;4.65;3.55;;;18.00;56.40;;;;;;10419164;28;20108;-54
2022/03/02 01:31:54;;;;;;;5.32;4.20;;;18.00;56.30;;;;;;10418598;28;20096;-54
2022/03/02 01:36:54;;;;;;;4.90;4.20;;;18.00;56.30;;;;;;10433610;28;20049;-53
2022/03/02 01:41:55;;;;;;;5.00;4.05;;;18.00;56.30;;;;;;10419159;28;20109;-51
2022/03/02 01:46:56;;;;;;;4.88;3.95;;;17.90;56.40;;;;;;10419567;28;20029;-54
2022/03/02 01:51:57;;;;;;;5.03;3.75;;;17.90;56.40;;;;;;10419260;28;20113;-52
2022/03/02 01:56:58;;;;;;;5.70;4.47;;;17.90;56.50;;;;;;10424682;28;20494;-54
2022/03/02 02:01:58;;;;;;;4.28;3.53;;;17.90;56.50;;;;;;10417426;28;20033;-54
2022/03/02 02:06:59;;;;;;;4.63;3.97;;;17.90;56.50;;;;;;10418516;28;20075;-54
2022/03/02 02:12:00;;;;;;;5.25;3.97;;;17.90;56.50;;;;;;10433863;28;20036;-52
2022/03/02 02:17:00;;;;;;;4.70;3.60;;;17.90;56.40;;;;;;10433653;28;20022;-54
2022/03/02 02:22:01;;;;;;;6.28;4.00;;;18.00;56.30;;;;;;10417842;28;20053;-54
2022/03/02 02:27:02;;;;;;;4.68;4.07;;;18.00;56.20;;;;;;10416066;28;20048;-53
2022/03/02 02:32:04;;;;;;;4.57;3.92;;;18.00;56.10;;;;;;10416764;28;20033;-54
2022/03/02 02:37:07;;;;;;;5.93;4.00;;;17.90;56.10;;;;;;10429729;28;20422;-53
2022/03/02 02:42:09;;;;;;;4.88;4.35;;;17.90;56.30;;;;;;10430058;28;20025;-52
2022/03/02 02:47:11;;;;;;;5.80;4.03;;;17.90;56.30;;;;;;10415890;28;20136;-54
2022/03/02 02:52:12;;;;;;;4.63;3.67;;;17.90;56.30;;;;;;10417440;28;20246;-53
2022/03/02 02:57:13;;;;;;;5.88;4.35;;;17.90;56.30;;;;;;10435409;28;20369;-53
2022/03/02 03:02:13;;;;;;;4.20;3.40;;;17.80;56.30;;;;;;10415955;28;20116;-54
2022/03/02 03:07:14;;;;;;;5.97;4.20;;;17.90;56.10;;;;;;10416141;28;20029;-54
2022/03/02 03:12:15;;;;;;;5.95;4.30;;;18.00;55.90;;;;;;10421338;28;20148;-54
2022/03/02 03:17:15;;;;;;;4.90;3.70;;;18.00;55.80;;;;;;10416032;28;20065;-54
2022/03/02 03:22:17;;;;;;;5.40;4.50;;;18.10;55.60;;;;;;10424423;28;20030;-55
2022/03/02 03:27:18;;;;;;;5.13;4.15;;;18.10;55.60;;;;;;10430972;28;20029;-54
2022/03/02 03:32:18;;;;;;;5.85;4.53;;;18.00;55.90;;;;;;10415158;28;20040;-53
2022/03/02 03:37:19;;;;;;;4.72;3.92;;;17.90;55.90;;;;;;10417278;28;20589;-54
2022/03/02 03:42:20;;;;;;;4.53;3.70;;;17.90;55.90;;;;;;10413717;28;20370;-53
2022/03/02 03:47:21;;;;;;;5.05;3.95;;;17.90;56.00;;;;;;10415036;28;20429;-53
2022/03/02 03:52:22;;;;;;;4.43;3.38;;;17.90;55.90;;;;;;10413372;28;20305;-53
2022/03/02 03:57:23;;;;;;;5.63;4.20;;;17.80;56.10;;;;;;10418119;28;20064;-54
2022/03/02 04:02:23;;;;;;;5.25;4.53;;;17.80;55.90;;;;;;10412607;28;20080;-54
2022/03/02 04:07:24;;;;;;;4.55;3.88;;;17.90;55.90;;;;;;10425458;28;20037;-54
2022/03/02 04:12:25;;;;;;;4.68;3.33;;;17.90;55.90;;;;;;10412395;28;20088;-53
2022/03/02 04:17:25;;;;;;;4.63;3.33;;;18.00;55.70;;;;;;10413888;28;20025;-53
2022/03/02 04:22:26;;;;;;;5.40;3.33;;;18.10;55.40;;;;;;10413259;28;20079;-53
2022/03/02 04:27:27;;;;;;;4.68;4.03;;;18.00;56.20;;;;;;10412200;28;20037;-55
2022/03/02 04:32:28;;;;;;;5.10;4.10;;;18.00;55.60;;;;;;10412087;28;20071;-55
2022/03/02 04:37:29;;;;;;;6.15;4.10;;;18.00;55.60;;;;;;10415575;28;20508;-52
2022/03/02 04:42:29;;;;;;;4.88;4.05;;;17.90;55.70;;;;;;10412040;28;20478;-54
2022/03/02 04:47:30;;;;;;;5.22;3.80;;;17.90;55.60;;;;;;10411903;28;20042;-53
2022/03/02 04:52:31;;;;;;;4.65;4.03;;;17.90;55.60;;;;;;10411871;28;20025;-52
2022/03/02 04:57:51;;;;;;;6.57;3.80;;;17.90;55.60;;;;;;10416232;28;20116;-55
2022/03/02 05:02:53;;;;;;;5.85;4.40;;;17.90;55.70;;;;;;10398442;28;20025;-52
2022/03/02 05:07:54;;;;;;;4.32;3.58;;;17.90;55.50;;;;;;10411388;28;20064;-55
2022/03/02 05:12:56;;;;;;;5.07;3.80;;;17.90;55.40;;;;;;10411397;28;20445;-54
2022/03/02 05:17:58;;;;;;;5.30;4.07;;;17.90;55.40;;;;;;10412802;28;20025;-54
2022/03/02 05:22:58;;;;;;;6.75;4.63;;;18.00;55.20;;;;;;10411592;28;20041;-54
2022/03/02 05:27:59;;;;;;;4.63;3.95;;;18.10;55.10;;;;;;10412482;28;20056;-53
2022/03/02 05:33:00;;;;;;;6.45;4.30;;;18.10;54.90;;;;;;10414808;28;20112;-53
2022/03/02 05:38:00;;;;;;;5.63;4.20;;;18.10;55.00;;;;;;10414829;28;20116;-54
2022/03/02 05:43:01;;;;;;;6.20;4.40;;;18.00;55.10;;;;;;10428997;28;20724;-52
2022/03/02 05:48:02;;;;;;;6.07;4.13;;;18.00;55.30;;;;;;10410108;28;20113;-55
2022/03/02 05:53:03;;;;;;;5.50;4.75;;;17.90;55.50;;;;;;10413081;28;20026;-55
2022/03/02 05:58:04;;;;;;;6.55;4.90;;;18.00;55.70;;;;;;10421686;28;20412;-56
2022/03/02 06:03:04;;;;;;;6.03;4.32;;;18.00;55.90;;;;;;10415467;28;20486;-55
2022/03/02 06:08:07;;;;;;;8.05;5.20;;;18.00;56.50;;;;;;10407985;28;20076;-56
2022/03/02 06:13:08;;;;;;;7.25;5.15;;;18.10;56.70;;;;;;10416433;28;20029;-53
2022/03/02 06:18:09;;;;;;;13.50;5.38;;;18.20;57.60;;;;;;10416633;28;20036;-57
2022/03/02 06:23:10;;;;;;;11.50;5.60;;;18.20;58.70;;;;;;10433007;28;20100;-54
2022/03/02 06:28:12;;;;;;;11.40;4.75;;;18.20;58.00;;;;;;10415172;28;20025;-54
2022/03/02 06:33:16;;;;;;;12.63;5.82;;;18.00;59.40;;;;;;10415685;28;20633;-54
2022/03/02 06:38:17;;;;;;;13.88;5.57;;;18.10;58.50;;;;;;10410289;28;20057;-54
2022/03/02 06:43:22;;;;;;;12.95;5.22;;;17.90;59.10;;;;;;10413578;28;20026;-54
2022/03/02 06:48:45;;;;;;;10.50;4.63;;;17.70;60.10;;;;;;10406899;28;20060;-53
2022/03/02 06:53:46;;;;;;;12.43;5.78;;;17.80;58.50;;;;;;10412628;28;20041;-51
2022/03/02 06:58:53;;;;;;;7.38;5.07;;;17.80;58.20;;;;;;10417423;28;20435;-51
2022/03/02 07:03:59;;;;;;;19.10;6.32;;;17.70;58.30;;;;;;10398673;28;20509;-50
2022/03/02 07:09:01;;;;;;;17.40;5.13;;;17.60;60.80;;;;;;10414930;28;20037;-53
2022/03/02 07:14:02;;;;;;;25.77;8.30;;;17.60;59.30;;;;;;10410247;28;20034;-51
2022/03/02 07:19:03;;;;;;;16.45;6.05;;;17.90;59.10;;;;;;10414554;28;20037;-52
2022/03/02 07:24:16;;;;;;;21.35;6.53;;;17.90;59.30;;;;;;10415655;28;20072;-55
2022/03/02 07:29:20;;;;;;;13.80;5.60;;;17.80;59.40;;;;;;10412411;28;20370;-57
2022/03/02 07:34:23;;;;;;;16.48;6.78;;;17.70;59.40;;;;;;10399609;28;20029;-57
2022/03/02 07:39:25;;;;;;;24.65;7.47;;;17.60;59.70;;;;;;10412494;28;20029;-57
2022/03/02 07:44:27;;;;;;;19.52;7.32;;;17.60;59.40;;;;;;10427006;28;20029;-56
2022/03/02 07:49:29;;;;;;;12.85;6.10;;;17.60;59.10;;;;;;10421175;28;20553;-57
2022/03/02 07:54:34;;;;;;;23.27;7.40;;;17.50;59.30;;;;;;10413366;28;20025;-55
2022/03/02 07:59:42;;;;;;;21.33;6.97;;;17.60;59.20;;;;;;10413349;28;20032;-56
2022/03/02 08:04:43;;;;;;;16.48;6.25;;;17.50;59.10;;;;;;10411456;28;20033;-57
2022/03/02 08:09:44;;;;;;;20.42;6.88;;;17.60;59.50;;;;;;10411093;28;20033;-57
2022/03/02 08:14:44;;;;;;;18.38;6.22;;;17.70;59.80;;;;;;10412371;28;20025;-56
2022/03/02 08:19:46;;;;;;;13.95;6.35;;;17.80;59.70;;;;;;10412155;28;20040;-57
2022/03/02 08:25:07;;;;;;;19.52;6.30;;;17.70;59.20;;;;;;10426443;28;20017;-57
2022/03/02 08:30:10;;;;;;;13.35;6.40;;;17.60;59.40;;;;;;10409222;28;20029;-57
2022/03/02 08:35:12;;;;;;;19.27;6.70;;;17.60;59.90;;;;;;10406470;28;20429;-56
2022/03/02 08:40:13;;;;;;;24.80;7.68;;;17.50;60.10;;;;;;10404821;28;20037;-55
2022/03/02 08:45:14;;;;;;;14.80;5.65;;;17.40;60.40;;;;;;10408199;28;20037;-57
2022/03/02 08:50:15;;;;;;;21.30;6.43;;;17.40;60.70;;;;;;10411593;28;20040;-56
2022/03/02 08:55:15;;;;;;;21.38;6.53;;;17.40;61.80;;;;;;10410074;28;20060;-55
2022/03/02 09:00:16;;;;;;;18.75;6.88;;;17.40;61.90;;;;;;10419231;28;20029;-55
2022/03/02 09:05:17;;;;;;;22.10;6.95;;;17.40;62.00;;;;;;10412246;28;20482;-54
2022/03/02 09:10:18;;;;;;;19.95;6.72;;;17.40;61.80;;;;;;10413316;28;20034;-54
2022/03/02 09:15:19;;;;;;;22.73;7.03;;;17.40;61.50;;;;;;10419541;28;20025;-55
2022/03/02 09:20:20;;;;;;;15.82;6.75;;;17.40;61.40;;;;;;10430100;28;20053;-55
2022/03/02 09:25:21;;;;;;;15.30;6.38;;;17.30;61.10;;;;;;10415210;28;20037;-54
2022/03/02 09:30:23;;;;;;;19.13;6.20;;;17.30;61.00;;;;;;10418712;28;20382;-54
2022/03/02 09:35:23;;;;;;;15.50;6.50;;;17.40;61.00;;;;;;10424284;28;20116;-53
2022/03/02 09:40:30;;;;;;;14.05;6.07;;;17.30;60.80;;;;;;10426412;28;20103;-56
2022/03/02 09:45:33;;;;;;;21.42;5.75;;;17.40;60.80;;;;;;10415058;28;20104;-55
2022/03/02 09:50:38;;;;;;;14.60;5.78;;;17.40;61.00;;;;;;10406304;28;20025;-53
2022/03/02 09:55:40;;;;;;;24.70;7.20;;;17.40;61.20;;;;;;10417042;28;20032;-55
2022/03/02 10:00:46;;;;;;;35.22;7.78;;;17.60;60.80;;;;;;10434149;28;20029;-57
2022/03/02 10:05:49;;;;;;;31.20;7.20;;;17.60;61.40;;;;;;10432612;28;20475;-57
2022/03/02 10:10:50;;;;;;;31.73;6.85;;;17.60;61.20;;;;;;10416058;28;20040;-57
2022/03/02 10:15:52;;;;;;;22.83;7.10;;;17.60;61.50;;;;;;10429850;28;20504;-56
2022/03/02 10:21:02;;;;;;;28.58;8.38;;;17.60;61.20;;;;;;10424329;28;20124;-56
2022/03/02 10:26:08;;;;;;;27.10;6.97;;;17.60;61.30;;;;;;10417104;28;20045;-56
2022/03/02 10:31:45;;;;;;;24.83;6.57;;;17.60;61.30;;;;;;10415872;28;20045;-56
2022/03/02 10:36:50;;;;;;;18.02;6.35;;;17.70;60.90;;;;;;10404986;28;20069;-56
2022/03/02 10:41:53;;;;;;;22.83;6.65;;;17.60;60.20;;;;;;10406174;28;20040;-57
2022/03/02 10:47:01;;;;;;;35.53;9.30;;;17.60;60.00;;;;;;10415863;28;20033;-56
2022/03/02 10:52:05;;;;;;;19.70;6.67;;;17.60;59.70;;;;;;10432162;28;20033;-55
2022/03/02 10:57:10;;;;;;;20.17;6.40;;;17.60;59.80;;;;;;10444749;28;20366;-55
2022/03/02 11:02:11;;;;;;;16.05;6.85;;;17.60;59.70;;;;;;10415669;28;20037;-56
2022/03/02 11:07:16;;;;;;;18.50;6.05;;;17.60;59.70;;;;;;10414243;28;20112;-56
2022/03/02 11:12:20;;;;;;;15.02;6.25;;;17.70;59.70;;;;;;10395513;28;20025;-55
2022/03/02 11:17:21;;;;;;;16.48;6.75;;;17.70;59.60;;;;;;10413557;28;20029;-56
2022/03/02 11:22:23;;;;;;;16.40;7.07;;;17.70;59.40;;;;;;10415751;28;20142;-56
2022/03/02 11:27:30;;;;;;;12.20;5.78;;;17.70;59.50;;;;;;10430825;28;20037;-56
2022/03/02 11:32:34;;;;;;;11.70;6.30;;;17.80;59.50;;;;;;10413938;28;20144;-56
2022/03/02 11:37:35;;;;;;;10.23;5.50;;;17.80;59.50;;;;;;10415132;28;20060;-56
2022/03/02 11:42:40;;;;;;;14.55;5.45;;;17.80;59.40;;;;;;10397409;28;20513;-55
2022/03/02 11:47:55;;;;;;;9.45;5.18;;;17.80;59.40;;;;;;10413847;28;20037;-58
2022/03/02 11:52:56;;;;;;;11.35;5.25;;;17.80;59.50;;;;;;10413583;28;20071;-56
2022/03/02 11:57:57;;;;;;;11.57;4.85;;;17.80;59.30;;;;;;10426273;28;20029;-55
2022/03/02 12:03:08;;;;;;;9.68;5.90;;;17.90;59.30;;;;;;10414718;28;20129;-56
2022/03/02 12:08:12;;;;;;;10.20;4.95;;;17.90;59.30;;;;;;10416308;28;20022;-56
2022/03/02 12:13:17;;;;;;;7.95;4.57;;;17.80;59.40;;;;;;10412872;28;20041;-56
2022/03/02 12:18:19;;;;;;;11.38;4.80;;;17.80;59.40;;;;;;10428883;28;20049;-56
2022/03/02 12:23:22;;;;;;;8.50;5.10;;;17.80;59.40;;;;;;10425302;28;20073;-54
2022/03/02 12:28:23;;;;;;;8.10;4.68;;;17.80;59.50;;;;;;10396213;28;20040;-55
2022/03/02 12:33:25;;;;;;;8.73;4.82;;;17.80;59.50;;;;;;10413447;28;20677;-55
2022/03/02 12:38:25;;;;;;;7.28;4.57;;;17.80;59.40;;;;;;10411955;28;20045;-55
2022/03/02 12:43:29;;;;;;;11.02;4.40;;;17.80;59.50;;;;;;10404241;28;20033;-55
2022/03/02 12:48:30;;;;;;;7.97;4.40;;;17.80;59.50;;;;;;10413167;28;20087;-56
2022/03/02 12:53:31;;;;;;;6.50;4.20;;;17.80;59.40;;;;;;10395262;28;20478;-56
2022/03/02 12:58:31;;;;;;;9.55;4.63;;;17.90;59.60;;;;;;10414597;28;20033;-56
2022/03/02 13:03:43;;;;;;;8.32;5.70;;;17.80;59.50;;;;;;10411470;28;20517;-55
2022/03/02 13:08:52;;;;;;;6.70;3.97;;;17.80;59.60;;;;;;10427308;28;20095;-55
2022/03/02 13:13:54;;;;;;;5.82;4.10;;;17.90;59.60;;;;;;10411646;28;20063;-55
2022/03/02 13:18:59;;;;;;;7.68;4.78;;;17.90;59.60;;;;;;10411366;28;20057;-55
2022/03/02 13:24:10;;;;;;;6.15;4.15;;;17.90;59.50;;;;;;10427857;28;20461;-56
2022/03/02 13:29:12;;;;;;;6.47;4.18;;;17.90;59.50;;;;;;10412119;28;20171;-56
2022/03/02 13:34:16;;;;;;;6.20;3.92;;;17.90;59.50;;;;;;10412396;28;20378;-56
2022/03/02 13:39:30;;;;;;;6.07;3.95;;;17.80;59.60;;;;;;10408210;28;20041;-58
2022/03/02 13:44:39;;;;;;;6.95;4.88;;;17.80;59.50;;;;;;10410530;28;20032;-57
2022/03/02 13:49:58;;;;;;;6.07;4.20;;;17.90;59.40;;;;;;10410059;28;20486;-58
2022/03/02 13:55:20;;;;;;;7.37;4.30;;;17.80;58.70;;;;;;10401401;28;20440;-56
2022/03/02 14:00:24;;;;;;;7.28;4.30;;;17.80;58.80;;;;;;10417409;28;20079;-57
2022/03/02 14:05:27;;;;;;;11.18;4.20;;;17.80;58.80;;;;;;10418798;28;20067;-57
2022/03/02 14:10:27;;;;;;;6.57;3.67;;;17.80;58.70;;;;;;10408669;28;20034;-57
2022/03/02 14:15:32;;;;;;;13.88;6.00;;;17.80;58.80;;;;;;10417157;28;21395;-57
2022/03/02 14:20:35;;;;;;;13.73;5.25;;;17.80;58.90;;;;;;10422183;28;20040;-57
2022/03/02 14:25:39;;;;;;;9.57;5.30;;;17.80;58.30;;;;;;10417174;28;20056;-57
2022/03/02 14:30:43;;;;;;;9.07;4.43;;;17.80;58.40;;;;;;10415674;28;20084;-57
2022/03/02 14:35:46;;;;;;;13.43;5.43;;;17.80;58.50;;;;;;10415902;28;20529;-58
2022/03/02 14:40:47;;;;;;;8.95;4.30;;;17.80;58.50;;;;;;10412183;28;20037;-57
2022/03/02 14:45:51;;;;;;;11.27;4.63;;;17.80;58.20;;;;;;10410363;28;20060;-57
2022/03/02 14:50:56;;;;;;;8.27;4.97;;;17.80;58.20;;;;;;10413658;28;20033;-58
2022/03/02 14:56:14;;;;;;;12.80;5.95;;;17.80;58.20;;;;;;10424955;28;20397;-59
2022/03/02 15:01:23;;;;;;;36.33;7.70;;;17.80;57.20;;;;;;10403728;28;20037;-56
2022/03/02 15:06:31;;;;;;;28.13;6.10;;;17.80;57.70;;;;;;10391046;28;20033;-56
2022/03/02 15:11:50;;;;;;;21.52;6.72;;;17.80;58.30;;;;;;10428418;28;20175;-56
2022/03/02 15:17:10;;;;;;;18.90;6.57;;;17.80;58.90;;;;;;10416403;28;20022;-56
2022/03/02 15:22:17;;;;;;;23.15;6.57;;;17.80;59.30;;;;;;10394322;28;20091;-56
2022/03/02 15:27:19;;;;;;;27.08;6.45;;;17.80;59.60;;;;;;10410403;28;20060;-56
2022/03/02 15:32:33;;;;;;;19.77;5.93;;;17.80;59.90;;;;;;10412776;28;20024;-55
2022/03/02 15:37:44;;;;;;;16.85;7.07;;;17.70;60.30;;;;;;10398702;28;20045;-56
2022/03/02 15:43:17;;;;;;;27.10;6.68;;;17.70;60.70;;;;;;10417950;28;20037;-56
2022/03/02 15:48:22;;;;;;;16.20;6.63;;;17.60;60.90;;;;;;10391651;28;20041;-56
2022/03/02 15:53:27;;;;;;;31.13;5.95;;;17.60;61.20;;;;;;10413191;28;20060;-56
2022/03/02 15:58:36;;;;;;;28.77;7.40;;;17.50;61.20;;;;;;10413323;28;20025;-56
2022/03/02 16:03:37;;;;;;;38.42;6.78;;;17.50;60.80;;;;;;10420887;28;20017;-57
2022/03/02 16:08:40;;;;;;;51.95;9.90;;;17.40;60.90;;;;;;10414070;28;20033;-55
2022/03/02 16:13:59;;;;;;;35.72;8.15;;;17.50;61.10;;;;;;10410339;28;20479;-56
2022/03/02 16:19:11;;;;;;;48.22;11.48;;;17.40;61.30;;;;;;10409580;28;20486;-56
2022/03/02 16:24:33;;;;;;;42.05;9.52;;;17.40;61.20;;;;;;10411835;28;20038;-57
2022/03/02 16:29:34;;;;;;;69.90;10.57;;;17.30;61.20;;;;;;10403874;28;20086;-57
2022/03/02 16:34:34;;;;;;;38.78;8.48;;;17.30;61.50;;;;;;10412765;28;20474;-56
2022/03/02 16:39:35;;;;;;;36.50;10.35;;;17.30;60.90;;;;;;10413112;28;20048;-57
2022/03/02 16:44:37;;;;;;;35.30;8.52;;;17.20;60.30;;;;;;10413030;28;20080;-55
2022/03/02 16:49:39;;;;;;;25.65;7.75;;;17.20;59.60;;;;;;10408312;28;20047;-55
2022/03/02 16:54:40;;;;;;;29.70;9.25;;;17.20;59.40;;;;;;10413699;28;20068;-55
2022/03/02 16:59:42;;;;;;;26.60;7.68;;;17.20;62.10;;;;;;10398550;28;20030;-57
2022/03/02 17:04:43;;;;;;;20.95;9.32;;;17.20;61.40;;;;;;10411637;28;20032;-54
2022/03/02 17:09:43;;;;;;;26.48;9.02;;;17.30;65.60;;;;;;10411079;28;20056;-56
2022/03/02 17:14:44;;;;;;;20.40;7.22;;;17.70;65.20;;;;;;10411196;28;20124;-54
2022/03/02 17:19:45;;;;;;;19.05;6.93;;;17.70;63.30;;;;;;10411109;28;20045;-56
2022/03/02 17:24:47;;;;;;;29.80;7.97;;;17.80;63.80;;;;;;10411895;28;20041;-53
2022/03/02 17:29:49;;;;;;;19.73;6.03;;;17.70;63.80;;;;;;10408892;28;20034;-57
2022/03/02 17:34:50;;;;;;;27.10;7.43;;;17.60;63.70;;;;;;10418418;28;20041;-58
2022/03/02 17:39:51;;;;;;;18.42;6.53;;;17.50;63.90;;;;;;10433400;28;20535;-56
2022/03/02 17:44:53;;;;;;;28.23;7.85;;;17.30;62.90;;;;;;10434510;28;20044;-55
2022/03/02 17:49:55;;;;;;;20.10;5.95;;;17.30;63.90;;;;;;10418755;28;20398;-53
2022/03/02 17:54:56;;;;;;;18.60;6.68;;;17.20;64.10;;;;;;10415186;28;20051;-51
2022/03/02 17:59:57;;;;;;;17.08;5.88;;;17.20;64.10;;;;;;10416284;28;20032;-57
2022/03/02 18:04:58;;;;;;;27.23;7.30;;;17.20;63.10;;;;;;10417918;28;20049;-59
2022/03/02 18:09:58;;;;;;;24.83;7.05;;;17.20;62.50;;;;;;10433691;28;20048;-57
2022/03/02 18:14:59;;;;;;;26.10;7.15;;;17.20;62.30;;;;;;10417381;28;20482;-57
2022/03/02 18:20:00;;;;;;;16.42;6.22;;;17.20;62.60;;;;;;10416762;28;20028;-57
2022/03/02 18:25:00;;;;;;;19.13;5.97;;;17.10;62.10;;;;;;10419761;28;20061;-57
2022/03/02 18:30:03;;;;;;;18.65;6.20;;;17.20;62.20;;;;;;10421105;28;20508;-56
2022/03/02 18:35:06;;;;;;;13.02;6.18;;;17.10;62.20;;;;;;10404552;28;20390;-56
2022/03/02 18:40:08;;;;;;;20.08;7.38;;;17.20;62.30;;;;;;10406733;28;20025;-57
2022/03/02 18:45:09;;;;;;;17.05;6.05;;;17.20;62.20;;;;;;10395633;28;20041;-56
2022/03/02 18:50:14;;;;;;;20.75;5.40;;;17.20;62.20;;;;;;10413985;28;20022;-55
2022/03/02 18:55:17;;;;;;;10.93;4.95;;;17.20;62.10;;;;;;10421706;28;20036;-57
2022/03/02 19:00:18;;;;;;;15.18;5.72;;;17.20;62.00;;;;;;10409856;28;20052;-57
2022/03/02 19:05:19;;;;;;;14.55;5.38;;;17.20;62.20;;;;;;10401630;28;20597;-56
2022/03/02 19:10:20;;;;;;;15.88;6.30;;;17.20;62.00;;;;;;10413874;28;20017;-57
2022/03/02 19:15:20;;;;;;;17.58;5.38;;;17.20;61.90;;;;;;10427043;28;20030;-57
2022/03/02 19:20:21;;;;;;;11.93;5.18;;;17.20;62.00;;;;;;10398350;28;20064;-57
2022/03/02 19:25:24;;;;;;;12.38;4.85;;;17.30;62.10;;;;;;10415249;28;20113;-56
2022/03/02 19:30:26;;;;;;;13.13;6.07;;;17.30;62.00;;;;;;10430792;28;20140;-56
2022/03/02 19:35:27;;;;;;;18.30;5.90;;;17.20;61.90;;;;;;10390984;28;20048;-57
2022/03/02 19:40:27;;;;;;;12.10;4.72;;;17.30;62.00;;;;;;10406019;28;20034;-55
2022/03/02 19:45:28;;;;;;;15.98;5.68;;;17.30;61.70;;;;;;10429966;28;20482;-57
2022/03/02 19:50:34;;;;;;;12.43;5.20;;;17.50;61.50;;;;;;10411807;28;20095;-58
2022/03/02 19:55:40;;;;;;;18.65;4.18;;;17.50;61.10;;;;;;10406834;28;20026;-57
2022/03/02 20:00:41;;;;;;;13.27;4.43;;;17.30;61.20;;;;;;10412625;28;20554;-57
2022/03/02 20:05:41;;;;;;;13.55;4.65;;;17.30;62.00;;;;;;10392339;28;20204;-57
2022/03/02 20:10:46;;;;;;;10.50;5.10;;;17.30;62.00;;;;;;10410261;28;20546;-56
2022/03/02 20:15:47;;;;;;;8.95;4.40;;;17.30;62.00;;;;;;10407612;28;20042;-58
2022/03/02 20:20:48;;;;;;;6.95;4.38;;;17.20;62.20;;;;;;10419430;28;20082;-57
2022/03/02 20:25:49;;;;;;;15.70;5.45;;;17.20;62.30;;;;;;10419580;28;20164;-57
2022/03/02 20:30:56;;;;;;;10.82;3.70;;;17.20;62.40;;;;;;10417452;28;20059;-57
2022/03/02 20:35:57;;;;;;;8.70;3.95;;;17.20;62.40;;;;;;10415239;28;20079;-57
2022/03/02 20:40:59;;;;;;;7.97;5.00;;;17.20;62.30;;;;;;10412285;28;20043;-57
2022/03/02 20:46:01;;;;;;;12.07;5.00;;;17.20;62.40;;;;;;10409635;28;20099;-57
2022/03/02 20:51:02;;;;;;;9.52;4.35;;;17.20;62.10;;;;;;10409138;28;20124;-57
2022/03/02 20:56:05;;;;;;;7.18;3.70;;;17.20;61.70;;;;;;10432603;28;20044;-57
2022/03/02 21:01:06;;;;;;;10.80;3.83;;;17.20;61.70;;;;;;10401291;28;20029;-57
2022/03/02 21:06:06;;;;;;;8.88;3.92;;;17.10;61.50;;;;;;10416812;28;20116;-57
2022/03/02 21:11:07;;;;;;;5.82;3.67;;;17.20;61.10;;;;;;10417134;28;20046;-57
2022/03/02 21:16:08;;;;;;;4.85;3.30;;;17.30;60.60;;;;;;10418457;28;20041;-57
2022/03/02 21:21:12;;;;;;;8.57;3.85;;;17.40;60.30;;;;;;10419342;28;20108;-57
2022/03/02 21:26:13;;;;;;;6.80;3.85;;;17.40;60.00;;;;;;10434923;28;20426;-57
2022/03/02 21:31:14;;;;;;;6.18;3.88;;;17.50;59.70;;;;;;10435762;28;20068;-57
2022/03/02 21:36:15;;;;;;;7.38;3.92;;;17.40;59.70;;;;;;10419681;28;20398;-58
2022/03/02 21:41:16;;;;;;;7.50;3.42;;;17.50;59.60;;;;;;10421858;28;20660;-57
2022/03/02 21:46:16;;;;;;;5.75;3.58;;;17.50;59.40;;;;;;10419579;28;20036;-58
2022/03/02 21:51:17;;;;;;;6.38;4.18;;;17.50;59.30;;;;;;10419075;28;20061;-57
2022/03/02 21:56:18;;;;;;;4.85;3.10;;;17.50;59.10;;;;;;10424460;28;20070;-57
2022/03/02 22:01:18;;;;;;;5.75;3.50;;;17.50;59.10;;;;;;10419326;28;20065;-57
2022/03/02 22:06:19;;;;;;;5.47;3.40;;;17.50;59.00;;;;;;10429502;28;20105;-57
2022/03/02 22:11:20;;;;;;;4.88;2.95;;;17.50;58.80;;;;;;10418735;28;20181;-57
2022/03/02 22:16:20;;;;;;;6.18;3.45;;;17.50;58.80;;;;;;10417073;28;20032;-58
2022/03/02 22:21:21;;;;;;;6.25;3.35;;;17.50;58.70;;;;;;10417336;28;20056;-57
2022/03/02 22:26:22;;;;;;;4.85;3.40;;;17.50;58.60;;;;;;10406366;28;20213;-57
2022/03/02 22:31:22;;;;;;;6.03;3.42;;;17.50;58.40;;;;;;10415977;28;20038;-56
2022/03/02 22:36:23;;;;;;;6.10;3.72;;;17.50;58.40;;;;;;10400185;28;20501;-57
2022/03/02 22:41:24;;;;;;;5.10;3.00;;;17.50;58.20;;;;;;10417624;28;20037;-57
2022/03/02 22:46:24;;;;;;;6.53;3.20;;;17.50;58.10;;;;;;10433040;28;20105;-57
2022/03/02 22:51:25;;;;;;;6.07;3.05;;;17.40;58.10;;;;;;10416894;28;20076;-57
2022/03/02 22:56:26;;;;;;;5.00;2.95;;;17.50;58.10;;;;;;10422427;28;20130;-57
2022/03/02 23:17:40;;;;;;;4.00;2.72;;;17.50;57.60;;;;;;10417920;28;20041;-57
2022/03/02 23:22:43;;;;;;;3.83;3.15;;;17.50;57.50;;;;;;10401995;28;20040;-56
2022/03/02 23:27:44;;;;;;;4.57;2.92;;;17.50;57.50;;;;;;10419211;28;20040;-57
2022/03/02 23:32:45;;;;;;;4.38;3.08;;;17.60;57.20;;;;;;10412857;28;20405;-57
2022/03/02 23:37:46;;;;;;;4.10;2.63;;;17.70;57.00;;;;;;10417337;28;20041;-57
2022/03/02 23:42:47;;;;;;;3.42;2.58;;;17.60;56.90;;;;;;10414729;28;20033;-57
2022/03/02 23:47:47;;;;;;;5.43;3.05;;;17.70;56.80;;;;;;10414914;28;20029;-58
2022/03/02 23:52:48;;;;;;;4.53;2.83;;;17.70;56.70;;;;;;10392548;28;20030;-58
2022/03/02 23:57:49;;;;;;;5.57;2.78;;;17.70;56.60;;;;;;10435532;28;20049;-58
